createdAt,value
2018-09-29T00:02:03.425Z,101631
2018-09-29T00:04:32.259Z,101626
2018-09-29T00:07:01.835Z,101634
2018-09-29T00:09:30.715Z,101629
2018-09-29T00:11:59.516Z,101632
2018-09-29T00:14:28.353Z,101625
2018-09-29T00:16:57.178Z,101636
2018-09-29T00:19:26.008Z,101627
2018-09-29T00:21:55.586Z,101634
2018-09-29T00:24:25.162Z,101626
2018-09-29T00:26:53.995Z,101633
2018-09-29T00:29:22.857Z,101626
2018-09-29T00:31:51.687Z,101627
2018-09-29T00:34:20.534Z,101626
2018-09-29T00:36:49.363Z,101630
2018-09-29T00:39:18.952Z,101634
2018-09-29T00:41:47.783Z,101637
2018-09-29T00:44:16.617Z,101635
2018-09-29T00:46:45.454Z,101640
2018-09-29T00:49:14.287Z,101635
2018-09-29T00:51:43.116Z,101629
2018-09-29T00:54:11.946Z,101629
2018-09-29T00:56:40.788Z,101626
2018-09-29T00:59:09.639Z,101621
2018-09-29T01:01:38.472Z,101620
2018-09-29T01:04:08.052Z,101607
2018-09-29T01:06:36.877Z,101614
2018-09-29T01:09:05.712Z,101612
2018-09-29T01:11:34.550Z,101602
2018-09-29T01:14:03.380Z,101599
2018-09-29T01:16:32.211Z,101598
2018-09-29T01:19:01.053Z,101577
2018-09-29T01:21:29.887Z,101593
2018-09-29T01:23:58.712Z,101580
2018-09-29T01:26:27.536Z,101585
2018-09-29T01:28:56.387Z,101571
2018-09-29T01:31:25.333Z,101582
2018-09-29T01:33:54.170Z,101577
2018-09-29T01:36:23.012Z,101587
2018-09-29T01:38:52.439Z,101578
2018-09-29T01:41:21.298Z,101579
2018-09-29T01:43:50.140Z,101573
2018-09-29T01:46:18.994Z,101573
2018-09-29T01:48:48.575Z,101571
2018-09-29T01:51:17.421Z,101574
2018-09-29T01:53:46.284Z,101580
2018-09-29T01:56:15.871Z,101586
2018-09-29T01:58:44.720Z,101583
2018-09-29T02:01:13.563Z,101577
2018-09-29T02:03:42.418Z,101581
2018-09-29T02:06:11.268Z,101589
2018-09-29T02:08:40.109Z,101593
2018-09-29T02:11:08.978Z,101585
2018-09-29T02:13:37.825Z,101586
2018-09-29T02:16:07.427Z,101583
2018-09-29T02:18:37.010Z,101588
2018-09-29T02:21:05.849Z,101580
2018-09-29T02:23:34.678Z,101580
2018-09-29T02:26:03.522Z,101576
2018-09-29T02:28:32.378Z,101572
2018-09-29T02:31:01.966Z,101574
2018-09-29T02:33:30.808Z,101570
2018-09-29T02:35:59.643Z,101577
2018-09-29T02:38:28.478Z,101576
2018-09-29T02:40:57.314Z,101577
2018-09-29T02:43:26.147Z,101584
2018-09-29T02:45:54.984Z,101584
2018-09-29T02:48:23.827Z,101588
2018-09-29T02:50:52.682Z,101585
2018-09-29T02:53:21.549Z,101587
2018-09-29T02:55:50.625Z,101581
2018-09-29T02:58:19.219Z,101592
2018-09-29T03:00:48.053Z,101590
2018-09-29T03:03:16.914Z,101586
2018-09-29T03:05:45.759Z,101585
2018-09-29T03:08:14.606Z,101590
2018-09-29T03:10:43.435Z,101585
2018-09-29T03:13:12.284Z,101582
2018-09-29T03:15:41.132Z,101583
2018-09-29T03:18:09.963Z,101579
2018-09-29T03:20:38.813Z,101583
2018-09-29T03:23:07.729Z,101584
2018-09-29T03:25:37.225Z,101581
2018-09-29T03:28:06.062Z,101584
2018-09-29T03:30:35.633Z,101587
2018-09-29T03:33:04.479Z,101585
2018-09-29T03:35:33.322Z,101585
2018-09-29T03:38:02.187Z,101585
2018-09-29T03:40:30.996Z,101576
2018-09-29T03:42:59.831Z,101580
2018-09-29T03:45:28.654Z,101589
2018-09-29T03:47:57.490Z,101580
2018-09-29T03:50:26.330Z,101577
2018-09-29T03:52:55.171Z,101585
2018-09-29T03:55:24.092Z,101580
2018-09-29T03:57:52.833Z,101571
2018-09-29T04:00:21.674Z,101577
2018-09-29T04:02:50.514Z,101579
2018-09-29T04:05:20.092Z,101577
2018-09-29T04:07:48.927Z,101580
2018-09-29T04:10:17.763Z,101581
2018-09-29T04:12:46.601Z,101591
2018-09-29T04:15:15.457Z,101582
2018-09-29T04:17:44.287Z,101590
2018-09-29T04:20:13.116Z,101585
2018-09-29T04:22:41.941Z,101586
2018-09-29T04:25:11.517Z,101595
2018-09-29T04:27:40.347Z,101593
2018-09-29T04:30:09.182Z,101598
2018-09-29T04:32:38.011Z,101601
2018-09-29T04:35:06.843Z,101599
2018-09-29T04:37:35.668Z,101598
2018-09-29T04:40:05.096Z,101600
2018-09-29T04:42:34.661Z,101603
2018-09-29T04:45:03.494Z,101597
2018-09-29T04:47:33.076Z,101592
2018-09-29T04:50:01.905Z,101596
2018-09-29T04:52:30.734Z,101597
2018-09-29T04:54:59.554Z,101597
2018-09-29T04:57:28.401Z,101599
2018-09-29T04:59:57.237Z,101596
2018-09-29T05:02:26.085Z,101597
2018-09-29T05:04:54.916Z,101592
2018-09-29T05:07:23.957Z,101595
2018-09-29T05:09:52.790Z,101593
2018-09-29T05:12:21.645Z,101587
2018-09-29T05:14:50.470Z,101586
2018-09-29T05:17:19.307Z,101583
2018-09-29T05:19:48.145Z,101584
2018-09-29T05:22:17.564Z,101588
2018-09-29T05:24:47.134Z,101575
2018-09-29T05:27:15.953Z,101584
2018-09-29T05:29:45.523Z,101589
2018-09-29T05:32:14.346Z,101598
2018-09-29T05:34:43.948Z,101593
2018-09-29T05:37:12.737Z,101595
2018-09-29T05:39:41.576Z,101588
2018-09-29T05:42:10.406Z,101591
2018-09-29T05:44:39.245Z,101598
2018-09-29T05:47:08.077Z,101607
2018-09-29T05:49:36.905Z,101619
2018-09-29T05:52:06.483Z,101612
2018-09-29T05:54:35.309Z,101605
2018-09-29T05:57:04.139Z,101608
2018-09-29T05:59:32.965Z,101614
2018-09-29T06:02:02.549Z,101614
2018-09-29T06:04:31.414Z,101619
2018-09-29T06:07:00.221Z,101618
2018-09-29T06:09:29.031Z,101625
2018-09-29T06:11:58.587Z,101629
2018-09-29T06:14:27.416Z,101630
2018-09-29T06:16:56.245Z,101626
2018-09-29T06:19:25.065Z,101630
2018-09-29T06:21:53.897Z,101635
2018-09-29T06:24:23.464Z,101635
2018-09-29T06:26:52.307Z,101634
2018-09-29T06:29:21.146Z,101637
2018-09-29T06:31:49.976Z,101626
2018-09-29T06:34:18.859Z,101638
2018-09-29T06:36:47.683Z,101642
2018-09-29T06:39:16.487Z,101641
2018-09-29T06:41:45.313Z,101649
2018-09-29T06:44:14.879Z,101650
2018-09-29T06:46:43.709Z,101642
2018-09-29T06:49:12.546Z,101650
2018-09-29T06:51:41.367Z,101653
2018-09-29T06:54:10.192Z,101662
2018-09-29T06:56:39.764Z,101658
2018-09-29T06:59:08.588Z,101657
2018-09-29T07:01:38.161Z,101655
2018-09-29T07:04:06.992Z,101657
2018-09-29T07:06:35.823Z,101655
2018-09-29T07:09:04.660Z,101654
2018-09-29T07:11:33.520Z,101656
2018-09-29T07:14:02.324Z,101653
2018-09-29T07:16:31.198Z,101645
2018-09-29T07:19:00.059Z,101650
2018-09-29T07:21:28.982Z,101648
2018-09-29T07:23:57.771Z,101651
2018-09-29T07:26:26.603Z,101653
2018-09-29T07:28:55.439Z,101649
2018-09-29T07:31:24.329Z,101644
2018-09-29T07:33:53.300Z,101658
2018-09-29T07:36:22.133Z,101660
2018-09-29T07:38:50.954Z,101666
2018-09-29T07:41:19.786Z,101659
2018-09-29T07:43:48.766Z,101660
2018-09-29T07:46:17.565Z,101656
2018-09-29T07:48:46.396Z,101658
2018-09-29T07:51:15.988Z,101657
2018-09-29T07:53:45.564Z,101658
2018-09-29T07:56:14.401Z,101669
2018-09-29T07:58:43.971Z,101669
2018-09-29T08:01:12.828Z,101670
2018-09-29T08:03:41.669Z,101673
2018-09-29T08:06:11.248Z,101667
2018-09-29T08:08:40.082Z,101668
2018-09-29T08:11:08.914Z,101668
2018-09-29T08:13:37.756Z,101655
2018-09-29T08:16:06.595Z,101656
2018-09-29T08:18:35.432Z,101655
2018-09-29T08:21:05.082Z,101652
2018-09-29T08:23:33.901Z,101649
2018-09-29T08:26:02.741Z,101648
2018-09-29T08:28:31.925Z,101655
2018-09-29T08:31:00.687Z,101653
2018-09-29T08:33:30.275Z,101649
2018-09-29T08:35:59.122Z,101649
2018-09-29T08:38:27.959Z,101648
2018-09-29T08:40:57.389Z,101643
2018-09-29T08:43:26.237Z,101642
2018-09-29T08:45:55.180Z,101643
2018-09-29T08:48:23.975Z,101647
2018-09-29T08:50:52.813Z,101645
2018-09-29T08:53:21.765Z,101645
2018-09-29T08:55:50.473Z,101641
2018-09-29T08:58:19.298Z,101638
2018-09-29T09:00:48.153Z,101637
2018-09-29T09:03:16.981Z,101635
2018-09-29T09:05:45.820Z,101641
2018-09-29T09:08:14.657Z,101649
2018-09-29T09:10:44.230Z,101635
2018-09-29T09:13:13.073Z,101629
2018-09-29T09:15:41.931Z,101635
2018-09-29T09:18:10.781Z,101624
2018-09-29T09:20:39.621Z,101618
2018-09-29T09:23:09.252Z,101619
2018-09-29T09:25:38.027Z,101618
2018-09-29T09:28:06.884Z,101615
2018-09-29T09:30:35.716Z,101612
2018-09-29T09:33:04.542Z,101608
2018-09-29T09:35:33.386Z,101604
2018-09-29T09:38:02.223Z,101603
2018-09-29T09:40:31.051Z,101602
2018-09-29T09:43:00.627Z,101597
2018-09-29T09:45:29.450Z,101593
2018-09-29T09:47:59.129Z,101592
2018-09-29T09:50:27.955Z,101586
2018-09-29T09:52:57.523Z,101579
2018-09-29T09:55:26.384Z,101590
2018-09-29T09:57:55.215Z,101590
2018-09-29T10:00:24.080Z,101587
2018-09-29T10:02:52.927Z,101578
2018-09-29T10:05:21.768Z,101588
2018-09-29T10:07:50.616Z,101585
2018-09-29T10:10:19.449Z,101589
2018-09-29T10:12:48.299Z,101581
2018-09-29T10:15:17.144Z,101585
2018-09-29T10:17:46.716Z,101581
2018-09-29T10:20:15.549Z,101581
2018-09-29T10:22:45.133Z,101574
2018-09-29T10:25:13.975Z,101571
2018-09-29T10:27:42.836Z,101571
2018-09-29T10:30:11.645Z,101567
2018-09-29T10:32:40.494Z,101565
2018-09-29T10:35:09.332Z,101562
2018-09-29T10:37:38.158Z,101558
2018-09-29T10:40:06.991Z,101562
2018-09-29T10:42:35.847Z,101549
2018-09-29T10:45:04.682Z,101555
2018-09-29T10:47:33.525Z,101551
2018-09-29T10:50:02.352Z,101551
2018-09-29T10:52:31.197Z,101548
2018-09-29T10:55:00.031Z,101544
2018-09-29T10:57:28.867Z,101534
2018-09-29T10:59:57.698Z,101527
2018-09-29T11:02:26.537Z,101540
2018-09-29T11:04:55.373Z,101531
2018-09-29T11:07:24.200Z,101529
2018-09-29T11:09:53.053Z,101519
2018-09-29T11:12:21.878Z,101504
2018-09-29T11:14:50.716Z,101505
2018-09-29T11:17:19.556Z,101507
2018-09-29T11:19:48.392Z,101506
2018-09-29T11:22:17.972Z,101498
2018-09-29T11:24:46.824Z,101499
2018-09-29T11:27:15.675Z,101492
2018-09-29T11:29:44.525Z,101489
2018-09-29T11:32:13.365Z,101479
2018-09-29T11:34:42.935Z,101480
2018-09-29T11:37:11.780Z,101480
2018-09-29T11:39:40.611Z,101482
2018-09-29T11:42:09.512Z,101474
2018-09-29T11:44:38.414Z,101461
2018-09-29T11:47:07.201Z,101458
2018-09-29T11:49:36.044Z,101450
2018-09-29T11:52:04.877Z,101448
2018-09-29T11:54:33.727Z,101442
2018-09-29T11:57:02.563Z,101445
2018-09-29T11:59:32.169Z,101432
2018-09-29T12:02:01.745Z,101426
2018-09-29T12:04:30.575Z,101421
2018-09-29T12:07:00.177Z,101416
2018-09-29T12:09:28.997Z,101411
2018-09-29T12:11:57.834Z,101411
2018-09-29T12:14:26.667Z,101404
2018-09-29T12:16:55.509Z,101401
2018-09-29T12:19:24.367Z,101397
2018-09-29T12:21:53.195Z,101395
2018-09-29T12:24:22.065Z,101388
2018-09-29T12:26:50.910Z,101380
2018-09-29T12:29:19.752Z,101385
2018-09-29T12:31:48.601Z,101380
2018-09-29T12:34:17.428Z,101376
2018-09-29T12:36:46.332Z,101376
2018-09-29T12:39:15.110Z,101374
2018-09-29T12:41:43.935Z,101371
2018-09-29T12:44:12.766Z,101362
2018-09-29T12:46:41.586Z,101360
2018-09-29T12:49:10.802Z,101359
2018-09-29T12:51:40.509Z,101351
2018-09-29T12:54:09.217Z,101349
2018-09-29T12:56:38.052Z,101348
2018-09-29T12:59:06.894Z,101352
2018-09-29T13:01:35.737Z,101348
2018-09-29T13:04:04.574Z,101343
2018-09-29T13:06:33.423Z,101343
2018-09-29T13:09:02.263Z,101335
2018-09-29T13:11:31.090Z,101336
2018-09-29T13:13:59.930Z,101331
2018-09-29T13:16:28.751Z,101323
2018-09-29T13:18:57.608Z,101325
2018-09-29T13:21:26.448Z,101319
2018-09-29T13:23:55.294Z,101307
2018-09-29T13:26:24.161Z,101309
2018-09-29T13:28:54.111Z,101306
2018-09-29T13:31:22.566Z,101313
2018-09-29T13:33:51.414Z,101300
2018-09-29T13:36:20.836Z,101297
2018-09-29T13:38:50.403Z,101304
2018-09-29T13:41:19.242Z,101306
2018-09-29T13:43:48.076Z,101297
2018-09-29T13:46:16.968Z,101301
2018-09-29T13:48:45.779Z,101294
2018-09-29T13:51:14.840Z,101291
2018-09-29T13:53:43.663Z,101296
2018-09-29T13:56:12.445Z,101282
2018-09-29T13:58:41.859Z,101272
2018-09-29T14:01:11.436Z,101269
2018-09-29T14:03:40.266Z,101267
2018-09-29T14:06:09.850Z,101260
2018-09-29T14:08:38.727Z,101253
2018-09-29T14:11:07.523Z,101261
2018-09-29T14:13:36.347Z,101266
2018-09-29T14:16:05.188Z,101249
2018-09-29T14:18:34.027Z,101244
2018-09-29T14:21:02.867Z,101242
2018-09-29T14:23:31.704Z,101243
2018-09-29T14:26:00.556Z,101235
2018-09-29T14:28:29.408Z,101232
2018-09-29T14:30:58.257Z,101233
2018-09-29T14:33:27.817Z,101224
2018-09-29T14:35:56.662Z,101223
2018-09-29T14:38:26.238Z,101218
2018-09-29T14:40:55.073Z,101215
2018-09-29T14:43:23.908Z,101208
2018-09-29T14:45:52.730Z,101205
2018-09-29T14:48:22.309Z,101201
2018-09-29T14:50:51.143Z,101202
2018-09-29T14:53:20.779Z,101198
2018-09-29T14:55:49.627Z,101196
2018-09-29T14:58:19.207Z,101193
2018-09-29T15:00:48.057Z,101192
2018-09-29T15:03:16.889Z,101188
2018-09-29T15:05:45.729Z,101197
2018-09-29T15:08:14.568Z,101187
2018-09-29T15:10:43.391Z,101185
2018-09-29T15:13:12.237Z,101181
2018-09-29T15:15:41.067Z,101182
2018-09-29T15:18:09.894Z,101177
2018-09-29T15:20:38.735Z,101184
2018-09-29T15:23:08.306Z,101181
2018-09-29T15:25:37.143Z,101184
2018-09-29T15:28:05.991Z,101179
2018-09-29T15:30:34.844Z,101174
2018-09-29T15:33:03.695Z,101166
2018-09-29T15:35:32.539Z,101169
2018-09-29T15:38:01.375Z,101174
2018-09-29T15:40:30.948Z,101161
2018-09-29T15:42:59.803Z,101165
2018-09-29T15:45:28.622Z,101161
2018-09-29T15:47:57.455Z,101158
2018-09-29T15:50:26.292Z,101158
2018-09-29T15:52:55.118Z,101150
2018-09-29T15:55:23.990Z,101155
2018-09-29T15:57:52.805Z,101155
2018-09-29T16:00:22.391Z,101153
2018-09-29T16:02:51.229Z,101157
2018-09-29T16:05:20.081Z,101162
2018-09-29T16:07:48.914Z,101160
2018-09-29T16:10:17.753Z,101152
2018-09-29T16:12:47.338Z,101151
2018-09-29T16:15:16.177Z,101147
2018-09-29T16:17:45.022Z,101146
2018-09-29T16:20:13.883Z,101143
2018-09-29T16:22:42.721Z,101151
2018-09-29T16:25:12.319Z,101145
2018-09-29T16:27:41.909Z,101141
2018-09-29T16:30:10.741Z,101142
2018-09-29T16:32:39.586Z,101144
2018-09-29T16:35:08.436Z,101142
2018-09-29T16:37:37.274Z,101140
2018-09-29T16:40:06.112Z,101146
2018-09-29T16:42:34.942Z,101151
2018-09-29T16:45:03.783Z,101150
2018-09-29T16:47:32.622Z,101150
2018-09-29T16:50:01.448Z,101147
2018-09-29T16:52:30.296Z,101150
2018-09-29T16:54:59.142Z,101151
2018-09-29T16:57:28.047Z,101151
2018-09-29T16:59:56.847Z,101153
2018-09-29T17:02:25.680Z,101147
2018-09-29T17:04:54.527Z,101142
2018-09-29T17:07:23.373Z,101141
2018-09-29T17:09:52.227Z,101137
2018-09-29T17:12:21.047Z,101142
2018-09-29T17:14:50.621Z,101142
2018-09-29T17:17:19.469Z,101141
2018-09-29T17:19:48.308Z,101144
2018-09-29T17:22:17.137Z,101148
2018-09-29T17:24:45.988Z,101149
2018-09-29T17:27:14.860Z,101149
2018-09-29T17:29:43.702Z,101152
2018-09-29T17:32:12.541Z,101153
2018-09-29T17:34:41.604Z,101146
2018-09-29T17:37:10.342Z,101145
2018-09-29T17:39:39.915Z,101148
2018-09-29T17:42:08.790Z,101153
2018-09-29T17:44:37.615Z,101143
2018-09-29T17:47:06.469Z,101144
2018-09-29T17:49:35.306Z,101137
2018-09-29T17:52:04.164Z,101137
2018-09-29T17:54:32.991Z,101136
2018-09-29T17:57:02.600Z,101138
2018-09-29T17:59:31.417Z,101147
2018-09-29T18:02:00.265Z,101146
2018-09-29T18:04:29.910Z,101145
2018-09-29T18:06:58.712Z,101136
2018-09-29T18:09:27.537Z,101144
2018-09-29T18:11:56.385Z,101153
2018-09-29T18:14:25.221Z,101148
2018-09-29T18:16:54.071Z,101145
2018-09-29T18:19:22.897Z,101148
2018-09-29T18:21:51.793Z,101148
2018-09-29T18:24:20.579Z,101151
2018-09-29T18:26:50.160Z,101151
2018-09-29T18:29:18.990Z,101149
2018-09-29T18:31:48.585Z,101148
2018-09-29T18:34:18.194Z,101157
2018-09-29T18:36:47.780Z,101152
2018-09-29T18:39:16.624Z,101144
2018-09-29T18:41:45.488Z,101144
2018-09-29T18:44:15.094Z,101139
2018-09-29T18:46:44.779Z,101146
2018-09-29T18:49:13.583Z,101134
2018-09-29T18:51:43.224Z,101137
2018-09-29T18:54:12.010Z,101141
2018-09-29T18:56:40.845Z,101144
2018-09-29T18:59:09.692Z,101139
2018-09-29T19:01:38.548Z,101142
2018-09-29T19:04:07.407Z,101140
2018-09-29T19:06:36.242Z,101142
2018-09-29T19:09:05.118Z,101149
2018-09-29T19:11:33.934Z,101147
2018-09-29T19:14:02.775Z,101145
2018-09-29T19:16:31.629Z,101152
2018-09-29T19:19:00.465Z,101146
2018-09-29T19:21:30.071Z,101151
2018-09-29T19:23:58.913Z,101146
2018-09-29T19:26:27.755Z,101143
2018-09-29T19:28:57.338Z,101136
2018-09-29T19:31:26.167Z,101139
2018-09-29T19:33:55.002Z,101138
2018-09-29T19:36:23.834Z,101129
2018-09-29T19:38:53.469Z,101127
2018-09-29T19:41:22.260Z,101122
2018-09-29T19:43:51.103Z,101125
2018-09-29T19:46:20.543Z,101127
2018-09-29T19:48:49.378Z,101126
2018-09-29T19:51:18.245Z,101119
2018-09-29T19:53:47.052Z,101122
2018-09-29T19:56:15.896Z,101124
2018-09-29T19:58:44.742Z,101129
2018-09-29T20:01:14.212Z,101133
2018-09-29T20:03:43.121Z,101121
2018-09-29T20:06:11.891Z,101121
2018-09-29T20:08:40.749Z,101122
2018-09-29T20:11:09.587Z,101125
2018-09-29T20:13:38.415Z,101125
2018-09-29T20:16:07.252Z,101126
2018-09-29T20:18:36.097Z,101127
2018-09-29T20:21:05.663Z,101124
2018-09-29T20:23:34.529Z,101116
2018-09-29T20:26:03.366Z,101121
2018-09-29T20:28:32.214Z,101108
2018-09-29T20:31:01.048Z,101121
2018-09-29T20:33:29.880Z,101121
2018-09-29T20:35:58.723Z,101117
2018-09-29T20:38:27.582Z,101114
2018-09-29T20:40:56.423Z,101113
2018-09-29T20:43:25.260Z,101106
2018-09-29T20:45:54.086Z,101112
2018-09-29T20:48:22.940Z,101111
2018-09-29T20:50:51.782Z,101102
2018-09-29T20:53:20.623Z,101107
2018-09-29T20:55:49.452Z,101103
2018-09-29T20:58:19.036Z,101100
2018-09-29T21:00:47.884Z,101105
2018-09-29T21:03:16.715Z,101100
2018-09-29T21:05:45.553Z,101103
2018-09-29T21:08:14.383Z,101096
2018-09-29T21:10:43.256Z,101095
2018-09-29T21:13:12.099Z,101095
2018-09-29T21:15:41.668Z,101106
2018-09-29T21:18:10.512Z,101091
2018-09-29T21:20:39.342Z,101085
2018-09-29T21:23:08.179Z,101084
2018-09-29T21:25:37.054Z,101085
2018-09-29T21:28:05.857Z,101083
2018-09-29T21:30:34.701Z,101080
2018-09-29T21:33:03.529Z,101088
2018-09-29T21:35:32.375Z,101089
2018-09-29T21:38:01.222Z,101089
2018-09-29T21:40:30.069Z,101086
2018-09-29T21:42:58.927Z,101089
2018-09-29T21:45:27.765Z,101085
2018-09-29T21:47:57.340Z,101082
2018-09-29T21:50:26.168Z,101080
2018-09-29T21:52:55.009Z,101071
2018-09-29T21:55:23.842Z,101079
2018-09-29T21:57:52.692Z,101073
2018-09-29T22:00:21.523Z,101074
2018-09-29T22:02:50.358Z,101072
2018-09-29T22:05:19.197Z,101073
2018-09-29T22:07:48.033Z,101076
2018-09-29T22:10:16.862Z,101061
2018-09-29T22:12:46.436Z,101070
2018-09-29T22:15:15.292Z,101059
2018-09-29T22:17:44.122Z,101055
2018-09-29T22:20:12.953Z,101064
2018-09-29T22:22:41.808Z,101059
2018-09-29T22:25:10.649Z,101063
2018-09-29T22:27:39.480Z,101057
2018-09-29T22:30:08.303Z,101063
2018-09-29T22:32:37.888Z,101060
2018-09-29T22:35:07.299Z,101052
2018-09-29T22:37:36.131Z,101053
2018-09-29T22:40:04.985Z,101048
2018-09-29T22:42:33.816Z,101046
2018-09-29T22:45:02.654Z,101037
2018-09-29T22:47:31.488Z,101035
2018-09-29T22:50:00.328Z,101030
2018-09-29T22:52:29.928Z,101024
2018-09-29T22:54:59.355Z,101033
2018-09-29T22:57:28.221Z,101040
2018-09-29T22:59:57.113Z,101029
2018-09-29T23:02:25.911Z,101020
2018-09-29T23:04:55.476Z,101022
2018-09-29T23:07:24.338Z,101023
2018-09-29T23:09:53.154Z,101024
2018-09-29T23:12:21.987Z,101025
2018-09-29T23:14:50.813Z,101025
2018-09-29T23:17:19.642Z,101021
2018-09-29T23:19:48.500Z,101008
2018-09-29T23:22:17.336Z,101009
2018-09-29T23:24:46.905Z,101011
2018-09-29T23:27:15.733Z,101011
2018-09-29T23:29:44.580Z,101004
2018-09-29T23:32:13.495Z,101002
2018-09-29T23:34:42.228Z,100976
2018-09-29T23:37:11.063Z,100989
2018-09-29T23:39:39.902Z,100994
2018-09-29T23:42:08.734Z,100987
2018-09-29T23:44:37.569Z,100979
2018-09-29T23:47:06.420Z,100978
2018-09-29T23:49:35.260Z,100973
2018-09-29T23:52:04.081Z,100974
2018-09-29T23:54:32.981Z,100971
2018-09-29T23:57:02.498Z,100964
2018-09-29T23:59:31.320Z,100967
